sensor_id;sensor_type;location;lat;lon;timestamp;P1;durP1;ratioP1;P2;durP2;ratioP2
33206;SDS011;19565;46.602;11.534;2023-01-29T00:01:59;40.10;;;38.30;;
33206;SDS011;19565;46.602;11.534;2023-01-29T00:04:30;39.83;;;38.13;;
33206;SDS011;19565;46.602;11.534;2023-01-29T00:06:58;41.43;;;39.43;;
33206;SDS011;19565;46.602;11.534;2023-01-29T00:09:26;41.10;;;39.30;;
33206;SDS011;19565;46.602;11.534;2023-01-29T00:11:54;41.30;;;39.50;;
33206;SDS011;19565;46.602;11.534;2023-01-29T00:14:22;40.30;;;38.50;;
33206;SDS011;19565;46.602;11.534;2023-01-29T00:16:51;40.83;;;39.03;;
33206;SDS011;19565;46.602;11.534;2023-01-29T00:19:20;40.20;;;38.50;;
33206;SDS011;19565;46.602;11.534;2023-01-29T00:21:49;40.60;;;38.80;;
33206;SDS011;19565;46.602;11.534;2023-01-29T00:24:17;21.47;;;20.03;;
33206;SDS011;19565;46.602;11.534;2023-01-29T00:26:48;19.93;;;18.83;;
33206;SDS011;19565;46.602;11.534;2023-01-29T00:29:16;18.17;;;17.27;;
33206;SDS011;19565;46.602;11.534;2023-01-29T00:31:45;20.20;;;18.43;;
33206;SDS011;19565;46.602;11.534;2023-01-29T00:34:13;18.37;;;17.47;;
33206;SDS011;19565;46.602;11.534;2023-01-29T00:36:41;18.13;;;17.23;;
33206;SDS011;19565;46.602;11.534;2023-01-29T00:39:12;17.93;;;17.03;;
33206;SDS011;19565;46.602;11.534;2023-01-29T00:41:42;18.27;;;17.37;;
33206;SDS011;19565;46.602;11.534;2023-01-29T00:44:28;19.00;;;18.10;;
33206;SDS011;19565;46.602;11.534;2023-01-29T00:47:14;17.90;;;17.00;;
33206;SDS011;19565;46.602;11.534;2023-01-29T00:49:58;18.50;;;17.60;;
33206;SDS011;19565;46.602;11.534;2023-01-29T00:52:27;19.00;;;18.10;;
33206;SDS011;19565;46.602;11.534;2023-01-29T00:54:58;18.73;;;17.83;;
33206;SDS011;19565;46.602;11.534;2023-01-29T00:57:27;18.70;;;17.80;;
33206;SDS011;19565;46.602;11.534;2023-01-29T00:59:56;17.90;;;17.00;;
33206;SDS011;19565;46.602;11.534;2023-01-29T01:02:24;18.40;;;17.50;;
33206;SDS011;19565;46.602;11.534;2023-01-29T01:05:11;18.07;;;17.17;;
33206;SDS011;19565;46.602;11.534;2023-01-29T01:07:43;18.53;;;17.53;;
33206;SDS011;19565;46.602;11.534;2023-01-29T01:10:14;18.70;;;17.80;;
33206;SDS011;19565;46.602;11.534;2023-01-29T01:12:48;17.70;;;16.90;;
33206;SDS011;19565;46.602;11.534;2023-01-29T01:15:18;17.90;;;17.00;;
33206;SDS011;19565;46.602;11.534;2023-01-29T01:17:47;18.40;;;17.50;;
33206;SDS011;19565;46.602;11.534;2023-01-29T01:20:19;19.70;;;18.60;;
33206;SDS011;19565;46.602;11.534;2023-01-29T01:22:47;18.30;;;17.40;;
33206;SDS011;19565;46.602;11.534;2023-01-29T01:25:17;37.50;;;35.90;;
33206;SDS011;19565;46.602;11.534;2023-01-29T01:27:45;39.10;;;37.40;;
33206;SDS011;19565;46.602;11.534;2023-01-29T01:30:13;41.67;;;39.87;;
33206;SDS011;19565;46.602;11.534;2023-01-29T01:32:43;41.27;;;39.47;;
33206;SDS011;19565;46.602;11.534;2023-01-29T01:35:11;41.20;;;39.40;;
33206;SDS011;19565;46.602;11.534;2023-01-29T01:37:40;42.17;;;40.37;;
33206;SDS011;19565;46.602;11.534;2023-01-29T01:40:10;40.87;;;39.07;;
33206;SDS011;19565;46.602;11.534;2023-01-29T01:42:45;41.80;;;40.00;;
33206;SDS011;19565;46.602;11.534;2023-01-29T01:45:19;40.40;;;38.70;;
33206;SDS011;19565;46.602;11.534;2023-01-29T01:47:51;42.70;;;40.90;;
33206;SDS011;19565;46.602;11.534;2023-01-29T01:50:26;42.80;;;40.97;;
33206;SDS011;19565;46.602;11.534;2023-01-29T01:52:58;42.43;;;40.63;;
33206;SDS011;19565;46.602;11.534;2023-01-29T01:55:30;42.47;;;40.67;;
33206;SDS011;19565;46.602;11.534;2023-01-29T01:58:03;44.03;;;42.03;;
33206;SDS011;19565;46.602;11.534;2023-01-29T02:00:36;18.30;;;17.40;;
33206;SDS011;19565;46.602;11.534;2023-01-29T02:03:06;18.50;;;17.60;;
33206;SDS011;19565;46.602;11.534;2023-01-29T02:05:53;18.70;;;17.80;;
33206;SDS011;19565;46.602;11.534;2023-01-29T02:08:44;17.90;;;17.00;;
33206;SDS011;19565;46.602;11.534;2023-01-29T02:11:37;19.23;;;18.23;;
33206;SDS011;19565;46.602;11.534;2023-01-29T02:14:06;18.40;;;17.50;;
33206;SDS011;19565;46.602;11.534;2023-01-29T02:16:35;18.00;;;17.10;;
33206;SDS011;19565;46.602;11.534;2023-01-29T02:19:03;18.80;;;17.90;;
33206;SDS011;19565;46.602;11.534;2023-01-29T02:21:47;18.50;;;17.60;;
33206;SDS011;19565;46.602;11.534;2023-01-29T02:24:57;18.90;;;17.90;;
33206;SDS011;19565;46.602;11.534;2023-01-29T02:30:41;18.40;;;17.50;;
33206;SDS011;19565;46.602;11.534;2023-01-29T02:33:18;18.30;;;17.40;;
33206;SDS011;19565;46.602;11.534;2023-01-29T02:35:55;18.30;;;17.40;;
33206;SDS011;19565;46.602;11.534;2023-01-29T02:38:27;21.17;;;19.83;;
33206;SDS011;19565;46.602;11.534;2023-01-29T02:41:03;39.97;;;38.27;;
33206;SDS011;19565;46.602;11.534;2023-01-29T02:43:40;42.00;;;40.20;;
33206;SDS011;19565;46.602;11.534;2023-01-29T02:46:15;41.77;;;39.97;;
33206;SDS011;19565;46.602;11.534;2023-01-29T02:48:47;42.00;;;40.20;;
33206;SDS011;19565;46.602;11.534;2023-01-29T02:51:23;42.60;;;40.77;;
33206;SDS011;19565;46.602;11.534;2023-01-29T02:53:57;41.33;;;39.53;;
33206;SDS011;19565;46.602;11.534;2023-01-29T02:56:29;42.17;;;40.27;;
33206;SDS011;19565;46.602;11.534;2023-01-29T02:59:06;40.90;;;39.10;;
33206;SDS011;19565;46.602;11.534;2023-01-29T03:01:37;42.47;;;40.47;;
33206;SDS011;19565;46.602;11.534;2023-01-29T03:04:11;43.03;;;41.23;;
33206;SDS011;19565;46.602;11.534;2023-01-29T03:06:45;42.87;;;41.03;;
33206;SDS011;19565;46.602;11.534;2023-01-29T03:09:19;40.67;;;38.87;;
33206;SDS011;19565;46.602;11.534;2023-01-29T03:11:52;20.00;;;18.70;;
33206;SDS011;19565;46.602;11.534;2023-01-29T03:14:28;18.37;;;17.47;;
33206;SDS011;19565;46.602;11.534;2023-01-29T03:17:25;18.43;;;17.53;;
33206;SDS011;19565;46.602;11.534;2023-01-29T03:20:01;40.00;;;38.30;;
33206;SDS011;19565;46.602;11.534;2023-01-29T03:22:33;40.37;;;38.60;;
33206;SDS011;19565;46.602;11.534;2023-01-29T03:25:03;40.80;;;39.00;;
33206;SDS011;19565;46.602;11.534;2023-01-29T03:27:50;40.00;;;38.30;;
33206;SDS011;19565;46.602;11.534;2023-01-29T03:30:40;41.23;;;39.43;;
33206;SDS011;19565;46.602;11.534;2023-01-29T03:33:30;41.40;;;39.60;;
33206;SDS011;19565;46.602;11.534;2023-01-29T03:36:06;40.20;;;38.50;;
33206;SDS011;19565;46.602;11.534;2023-01-29T03:38:36;40.57;;;38.77;;
33206;SDS011;19565;46.602;11.534;2023-01-29T03:41:06;39.77;;;38.07;;
33206;SDS011;19565;46.602;11.534;2023-01-29T03:43:43;39.20;;;37.50;;
33206;SDS011;19565;46.602;11.534;2023-01-29T03:46:19;41.57;;;39.63;;
33206;SDS011;19565;46.602;11.534;2023-01-29T03:48:55;41.07;;;39.27;;
33206;SDS011;19565;46.602;11.534;2023-01-29T03:51:28;41.50;;;39.70;;
33206;SDS011;19565;46.602;11.534;2023-01-29T03:54:03;41.50;;;39.70;;
33206;SDS011;19565;46.602;11.534;2023-01-29T03:56:38;41.90;;;40.10;;
33206;SDS011;19565;46.602;11.534;2023-01-29T03:59:16;41.07;;;39.27;;
33206;SDS011;19565;46.602;11.534;2023-01-29T04:01:51;39.87;;;38.17;;
33206;SDS011;19565;46.602;11.534;2023-01-29T04:04:23;41.33;;;39.53;;
33206;SDS011;19565;46.602;11.534;2023-01-29T04:06:56;40.10;;;38.40;;
33206;SDS011;19565;46.602;11.534;2023-01-29T04:09:30;41.07;;;39.20;;
33206;SDS011;19565;46.602;11.534;2023-01-29T04:12:01;40.17;;;38.40;;
33206;SDS011;19565;46.602;11.534;2023-01-29T04:14:34;40.40;;;38.67;;
33206;SDS011;19565;46.602;11.534;2023-01-29T04:17:06;39.60;;;37.90;;
33206;SDS011;19565;46.602;11.534;2023-01-29T04:19:37;38.53;;;36.83;;
33206;SDS011;19565;46.602;11.534;2023-01-29T04:22:08;38.87;;;37.17;;
33206;SDS011;19565;46.602;11.534;2023-01-29T04:24:39;40.43;;;38.63;;
33206;SDS011;19565;46.602;11.534;2023-01-29T04:27:15;40.13;;;38.43;;
33206;SDS011;19565;46.602;11.534;2023-01-29T04:29:56;40.77;;;38.97;;
33206;SDS011;19565;46.602;11.534;2023-01-29T04:32:35;39.10;;;37.40;;
33206;SDS011;19565;46.602;11.534;2023-01-29T04:35:19;38.30;;;36.60;;
33206;SDS011;19565;46.602;11.534;2023-01-29T04:37:56;39.00;;;37.30;;
33206;SDS011;19565;46.602;11.534;2023-01-29T04:40:36;39.23;;;37.53;;
33206;SDS011;19565;46.602;11.534;2023-01-29T04:43:12;38.70;;;37.00;;
33206;SDS011;19565;46.602;11.534;2023-01-29T04:45:47;40.43;;;38.63;;
33206;SDS011;19565;46.602;11.534;2023-01-29T04:48:25;41.00;;;39.20;;
33206;SDS011;19565;46.602;11.534;2023-01-29T04:50:58;40.87;;;39.07;;
33206;SDS011;19565;46.602;11.534;2023-01-29T04:53:34;43.30;;;41.20;;
33206;SDS011;19565;46.602;11.534;2023-01-29T04:56:09;42.37;;;40.57;;
33206;SDS011;19565;46.602;11.534;2023-01-29T04:58:46;42.07;;;40.27;;
33206;SDS011;19565;46.602;11.534;2023-01-29T05:01:18;40.23;;;38.53;;
33206;SDS011;19565;46.602;11.534;2023-01-29T05:03:52;40.43;;;38.63;;
33206;SDS011;19565;46.602;11.534;2023-01-29T05:06:22;40.20;;;38.40;;
33206;SDS011;19565;46.602;11.534;2023-01-29T05:08:51;39.50;;;37.80;;
33206;SDS011;19565;46.602;11.534;2023-01-29T05:11:21;43.07;;;41.10;;
33206;SDS011;19565;46.602;11.534;2023-01-29T05:13:50;40.40;;;38.60;;
33206;SDS011;19565;46.602;11.534;2023-01-29T05:16:19;40.60;;;38.80;;
33206;SDS011;19565;46.602;11.534;2023-01-29T05:18:51;40.60;;;38.80;;
33206;SDS011;19565;46.602;11.534;2023-01-29T05:21:22;40.87;;;39.07;;
33206;SDS011;19565;46.602;11.534;2023-01-29T05:24:07;40.23;;;38.43;;
33206;SDS011;19565;46.602;11.534;2023-01-29T05:26:37;40.37;;;38.57;;
33206;SDS011;19565;46.602;11.534;2023-01-29T05:29:22;40.13;;;38.37;;
33206;SDS011;19565;46.602;11.534;2023-01-29T05:31:50;40.40;;;38.60;;
33206;SDS011;19565;46.602;11.534;2023-01-29T05:34:20;18.53;;;17.63;;
33206;SDS011;19565;46.602;11.534;2023-01-29T05:36:48;18.90;;;18.00;;
33206;SDS011;19565;46.602;11.534;2023-01-29T05:39:16;19.20;;;18.20;;
33206;SDS011;19565;46.602;11.534;2023-01-29T05:41:44;18.80;;;17.90;;
33206;SDS011;19565;46.602;11.534;2023-01-29T05:44:12;19.03;;;18.13;;
33206;SDS011;19565;46.602;11.534;2023-01-29T05:46:40;19.30;;;18.40;;
33206;SDS011;19565;46.602;11.534;2023-01-29T05:49:09;18.47;;;17.57;;
33206;SDS011;19565;46.602;11.534;2023-01-29T05:51:38;18.60;;;17.70;;
33206;SDS011;19565;46.602;11.534;2023-01-29T05:54:06;18.30;;;17.40;;
33206;SDS011;19565;46.602;11.534;2023-01-29T05:56:34;18.60;;;17.70;;
33206;SDS011;19565;46.602;11.534;2023-01-29T05:59:02;18.40;;;17.50;;
33206;SDS011;19565;46.602;11.534;2023-01-29T06:01:30;40.20;;;38.50;;
33206;SDS011;19565;46.602;11.534;2023-01-29T06:03:58;43.17;;;41.27;;
33206;SDS011;19565;46.602;11.534;2023-01-29T06:06:26;42.00;;;40.20;;
33206;SDS011;19565;46.602;11.534;2023-01-29T06:08:56;43.73;;;41.83;;
33206;SDS011;19565;46.602;11.534;2023-01-29T06:11:24;41.27;;;39.47;;
33206;SDS011;19565;46.602;11.534;2023-01-29T06:13:52;41.70;;;39.90;;
33206;SDS011;19565;46.602;11.534;2023-01-29T06:16:20;19.30;;;18.37;;
33206;SDS011;19565;46.602;11.534;2023-01-29T06:18:48;18.53;;;17.63;;
33206;SDS011;19565;46.602;11.534;2023-01-29T06:21:16;18.67;;;17.77;;
33206;SDS011;19565;46.602;11.534;2023-01-29T06:23:45;18.60;;;17.70;;
33206;SDS011;19565;46.602;11.534;2023-01-29T06:28:42;41.78;;;39.97;;
33206;SDS011;19565;46.602;11.534;2023-01-29T06:31:11;40.65;;;38.85;;
33206;SDS011;19565;46.602;11.534;2023-01-29T06:33:59;41.90;;;40.10;;
33206;SDS011;19565;46.602;11.534;2023-01-29T06:36:27;40.73;;;38.80;;
33206;SDS011;19565;46.602;11.534;2023-01-29T06:38:55;44.67;;;42.58;;
33206;SDS011;19565;46.602;11.534;2023-01-29T06:41:26;40.30;;;38.53;;
33206;SDS011;19565;46.602;11.534;2023-01-29T06:43:54;41.47;;;39.67;;
33206;SDS011;19565;46.602;11.534;2023-01-29T06:46:22;41.03;;;39.23;;
33206;SDS011;19565;46.602;11.534;2023-01-29T06:48:50;39.77;;;38.03;;
33206;SDS011;19565;46.602;11.534;2023-01-29T06:51:18;41.17;;;39.27;;
33206;SDS011;19565;46.602;11.534;2023-01-29T06:53:48;42.90;;;41.00;;
33206;SDS011;19565;46.602;11.534;2023-01-29T06:56:19;40.27;;;38.57;;
33206;SDS011;19565;46.602;11.534;2023-01-29T06:58:49;38.47;;;36.77;;
33206;SDS011;19565;46.602;11.534;2023-01-29T07:01:17;38.73;;;37.03;;
33206;SDS011;19565;46.602;11.534;2023-01-29T07:04:00;36.87;;;35.27;;
33206;SDS011;19565;46.602;11.534;2023-01-29T07:06:29;38.60;;;36.90;;
33206;SDS011;19565;46.602;11.534;2023-01-29T07:08:57;37.93;;;36.33;;
33206;SDS011;19565;46.602;11.534;2023-01-29T07:11:25;37.80;;;36.20;;
33206;SDS011;19565;46.602;11.534;2023-01-29T07:13:55;38.40;;;36.70;;
33206;SDS011;19565;46.602;11.534;2023-01-29T07:16:23;37.60;;;35.93;;
33206;SDS011;19565;46.602;11.534;2023-01-29T07:18:51;40.90;;;39.10;;
33206;SDS011;19565;46.602;11.534;2023-01-29T07:21:19;37.43;;;35.83;;
33206;SDS011;19565;46.602;11.534;2023-01-29T07:23:48;37.00;;;35.40;;
33206;SDS011;19565;46.602;11.534;2023-01-29T07:26:16;38.60;;;36.90;;
33206;SDS011;19565;46.602;11.534;2023-01-29T07:28:44;37.63;;;36.03;;
33206;SDS011;19565;46.602;11.534;2023-01-29T07:31:14;36.53;;;34.93;;
33206;SDS011;19565;46.602;11.534;2023-01-29T07:33:42;38.17;;;36.47;;
33206;SDS011;19565;46.602;11.534;2023-01-29T07:36:11;37.13;;;35.53;;
33206;SDS011;19565;46.602;11.534;2023-01-29T07:38:39;39.13;;;37.43;;
33206;SDS011;19565;46.602;11.534;2023-01-29T07:41:08;38.73;;;36.93;;
33206;SDS011;19565;46.602;11.534;2023-01-29T07:43:37;38.13;;;36.53;;
33206;SDS011;19565;46.602;11.534;2023-01-29T07:46:06;37.37;;;35.67;;
33206;SDS011;19565;46.602;11.534;2023-01-29T07:48:35;37.93;;;36.33;;
33206;SDS011;19565;46.602;11.534;2023-01-29T07:51:03;38.37;;;36.70;;
33206;SDS011;19565;46.602;11.534;2023-01-29T07:53:34;38.27;;;36.60;;
33206;SDS011;19565;46.602;11.534;2023-01-29T07:56:02;39.00;;;37.30;;
33206;SDS011;19565;46.602;11.534;2023-01-29T07:58:30;39.30;;;37.50;;
33206;SDS011;19565;46.602;11.534;2023-01-29T08:01:03;39.20;;;37.40;;
33206;SDS011;19565;46.602;11.534;2023-01-29T08:03:32;39.87;;;37.87;;
33206;SDS011;19565;46.602;11.534;2023-01-29T08:06:01;38.80;;;37.10;;
33206;SDS011;19565;46.602;11.534;2023-01-29T08:08:30;37.30;;;35.70;;
33206;SDS011;19565;46.602;11.534;2023-01-29T08:10:59;36.80;;;35.20;;
33206;SDS011;19565;46.602;11.534;2023-01-29T08:13:28;39.27;;;37.47;;
33206;SDS011;19565;46.602;11.534;2023-01-29T08:15:57;37.70;;;36.10;;
33206;SDS011;19565;46.602;11.534;2023-01-29T08:18:26;37.43;;;35.83;;
33206;SDS011;19565;46.602;11.534;2023-01-29T08:20:57;38.97;;;37.13;;
33206;SDS011;19565;46.602;11.534;2023-01-29T08:23:28;38.83;;;37.13;;
33206;SDS011;19565;46.602;11.534;2023-01-29T08:25:56;37.87;;;36.23;;
33206;SDS011;19565;46.602;11.534;2023-01-29T08:28:24;39.83;;;38.03;;
33206;SDS011;19565;46.602;11.534;2023-01-29T08:30:53;39.50;;;37.80;;
33206;SDS011;19565;46.602;11.534;2023-01-29T08:33:21;39.70;;;38.00;;
33206;SDS011;19565;46.602;11.534;2023-01-29T08:36:04;38.47;;;36.77;;
33206;SDS011;19565;46.602;11.534;2023-01-29T08:38:36;18.60;;;17.70;;
33206;SDS011;19565;46.602;11.534;2023-01-29T08:41:04;19.10;;;18.10;;
33206;SDS011;19565;46.602;11.534;2023-01-29T08:43:32;18.80;;;17.90;;
33206;SDS011;19565;46.602;11.534;2023-01-29T08:46:02;26.77;;;19.47;;
33206;SDS011;19565;46.602;11.534;2023-01-29T08:48:31;19.40;;;18.30;;
33206;SDS011;19565;46.602;11.534;2023-01-29T08:51:00;19.40;;;18.37;;
33206;SDS011;19565;46.602;11.534;2023-01-29T08:53:29;19.20;;;18.27;;
33206;SDS011;19565;46.602;11.534;2023-01-29T08:55:59;19.63;;;18.60;;
33206;SDS011;19565;46.602;11.534;2023-01-29T08:58:28;23.43;;;22.33;;
33206;SDS011;19565;46.602;11.534;2023-01-29T09:00:56;22.37;;;21.27;;
33206;SDS011;19565;46.602;11.534;2023-01-29T09:03:32;24.00;;;22.80;;
33206;SDS011;19565;46.602;11.534;2023-01-29T09:06:00;24.33;;;23.23;;
33206;SDS011;19565;46.602;11.534;2023-01-29T09:08:28;25.50;;;24.17;;
33206;SDS011;19565;46.602;11.534;2023-01-29T09:10:57;21.57;;;20.57;;
33206;SDS011;19565;46.602;11.534;2023-01-29T09:13:27;23.43;;;22.23;;
33206;SDS011;19565;46.602;11.534;2023-01-29T09:15:57;23.47;;;22.27;;
33206;SDS011;19565;46.602;11.534;2023-01-29T09:18:26;19.90;;;19.00;;
33206;SDS011;19565;46.602;11.534;2023-01-29T09:20:54;19.27;;;18.27;;
33206;SDS011;19565;46.602;11.534;2023-01-29T09:23:23;18.27;;;17.37;;
33206;SDS011;19565;46.602;11.534;2023-01-29T09:25:51;19.00;;;18.10;;
33206;SDS011;19565;46.602;11.534;2023-01-29T09:28:19;37.07;;;35.47;;
33206;SDS011;19565;46.602;11.534;2023-01-29T09:30:49;36.97;;;35.27;;
33206;SDS011;19565;46.602;11.534;2023-01-29T09:33:18;39.30;;;37.60;;
33206;SDS011;19565;46.602;11.534;2023-01-29T09:35:46;38.53;;;36.83;;
33206;SDS011;19565;46.602;11.534;2023-01-29T09:38:14;36.17;;;34.57;;
33206;SDS011;19565;46.602;11.534;2023-01-29T09:40:45;38.33;;;36.60;;
33206;SDS011;19565;46.602;11.534;2023-01-29T09:43:19;36.33;;;34.73;;
33206;SDS011;19565;46.602;11.534;2023-01-29T09:45:53;37.00;;;35.40;;
33206;SDS011;19565;46.602;11.534;2023-01-29T09:48:25;37.13;;;35.53;;
33206;SDS011;19565;46.602;11.534;2023-01-29T09:50:56;38.30;;;36.60;;
33206;SDS011;19565;46.602;11.534;2023-01-29T09:53:28;39.63;;;37.93;;
33206;SDS011;19565;46.602;11.534;2023-01-29T09:56:02;38.13;;;36.43;;
33206;SDS011;19565;46.602;11.534;2023-01-29T09:58:33;38.07;;;36.40;;
33206;SDS011;19565;46.602;11.534;2023-01-29T10:01:09;37.63;;;36.03;;
33206;SDS011;19565;46.602;11.534;2023-01-29T10:06:44;36.77;;;35.17;;
33206;SDS011;19565;46.602;11.534;2023-01-29T10:12:35;37.37;;;35.77;;
33206;SDS011;19565;46.602;11.534;2023-01-29T10:15:16;37.77;;;36.17;;
33206;SDS011;19565;46.602;11.534;2023-01-29T10:17:54;38.67;;;36.97;;
33206;SDS011;19565;46.602;11.534;2023-01-29T10:20:38;37.90;;;36.23;;
33206;SDS011;19565;46.602;11.534;2023-01-29T10:23:23;37.03;;;35.43;;
33206;SDS011;19565;46.602;11.534;2023-01-29T10:25:53;37.90;;;36.30;;
33206;SDS011;19565;46.602;11.534;2023-01-29T10:28:24;37.43;;;35.83;;
33206;SDS011;19565;46.602;11.534;2023-01-29T10:30:55;36.40;;;34.80;;
33206;SDS011;19565;46.602;11.534;2023-01-29T10:33:31;37.67;;;36.03;;
33206;SDS011;19565;46.602;11.534;2023-01-29T10:36:25;37.17;;;35.57;;
33206;SDS011;19565;46.602;11.534;2023-01-29T10:38:58;37.43;;;35.83;;
33206;SDS011;19565;46.602;11.534;2023-01-29T10:41:39;39.03;;;37.33;;
33206;SDS011;19565;46.602;11.534;2023-01-29T10:44:22;37.33;;;35.23;;
33206;SDS011;19565;46.602;11.534;2023-01-29T10:47:06;38.20;;;36.53;;
33206;SDS011;19565;46.602;11.534;2023-01-29T10:50:02;39.60;;;37.90;;
33206;SDS011;19565;46.602;11.534;2023-01-29T10:52:49;38.10;;;36.43;;
33206;SDS011;19565;46.602;11.534;2023-01-29T10:55:32;37.83;;;36.13;;
33206;SDS011;19565;46.602;11.534;2023-01-29T10:58:10;37.23;;;35.63;;
33206;SDS011;19565;46.602;11.534;2023-01-29T11:00:46;40.53;;;38.63;;
33206;SDS011;19565;46.602;11.534;2023-01-29T11:03:15;38.83;;;37.13;;
33206;SDS011;19565;46.602;11.534;2023-01-29T11:05:56;38.07;;;36.43;;
33206;SDS011;19565;46.602;11.534;2023-01-29T11:08:30;38.37;;;36.67;;
33206;SDS011;19565;46.602;11.534;2023-01-29T11:11:05;39.17;;;37.47;;
33206;SDS011;19565;46.602;11.534;2023-01-29T11:13:37;38.40;;;36.70;;
33206;SDS011;19565;46.602;11.534;2023-01-29T11:16:08;38.57;;;36.87;;
33206;SDS011;19565;46.602;11.534;2023-01-29T11:18:53;39.30;;;37.50;;
33206;SDS011;19565;46.602;11.534;2023-01-29T11:21:24;38.10;;;36.40;;
33206;SDS011;19565;46.602;11.534;2023-01-29T11:24:04;37.43;;;35.83;;
33206;SDS011;19565;46.602;11.534;2023-01-29T11:26:34;40.00;;;38.20;;
33206;SDS011;19565;46.602;11.534;2023-01-29T11:29:13;39.33;;;37.63;;
33206;SDS011;19565;46.602;11.534;2023-01-29T11:32:00;37.67;;;36.07;;
33206;SDS011;19565;46.602;11.534;2023-01-29T11:34:31;35.83;;;34.23;;
33206;SDS011;19565;46.602;11.534;2023-01-29T11:37:01;38.97;;;37.27;;
33206;SDS011;19565;46.602;11.534;2023-01-29T11:39:30;37.67;;;36.07;;
33206;SDS011;19565;46.602;11.534;2023-01-29T11:41:59;39.20;;;37.50;;
33206;SDS011;19565;46.602;11.534;2023-01-29T11:44:30;39.97;;;38.23;;
33206;SDS011;19565;46.602;11.534;2023-01-29T11:47:08;38.90;;;37.20;;
33206;SDS011;19565;46.602;11.534;2023-01-29T11:49:39;38.23;;;36.53;;
33206;SDS011;19565;46.602;11.534;2023-01-29T11:52:13;38.30;;;36.60;;
33206;SDS011;19565;46.602;11.534;2023-01-29T11:54:44;39.50;;;37.70;;
33206;SDS011;19565;46.602;11.534;2023-01-29T11:57:20;36.90;;;35.30;;
33206;SDS011;19565;46.602;11.534;2023-01-29T11:59:53;18.40;;;17.50;;
33206;SDS011;19565;46.602;11.534;2023-01-29T12:02:26;14.50;;;13.77;;
33206;SDS011;19565;46.602;11.534;2023-01-29T12:04:59;19.10;;;18.00;;
33206;SDS011;19565;46.602;11.534;2023-01-29T12:07:32;23.87;;;22.77;;
33206;SDS011;19565;46.602;11.534;2023-01-29T12:10:00;23.57;;;22.47;;
33206;SDS011;19565;46.602;11.534;2023-01-29T12:12:30;25.57;;;24.47;;
33206;SDS011;19565;46.602;11.534;2023-01-29T12:15:04;24.50;;;23.40;;
33206;SDS011;19565;46.602;11.534;2023-01-29T12:17:52;29.17;;;27.97;;
33206;SDS011;19565;46.602;11.534;2023-01-29T12:20:30;30.00;;;28.70;;
33206;SDS011;19565;46.602;11.534;2023-01-29T12:23:09;29.87;;;28.57;;
33206;SDS011;19565;46.602;11.534;2023-01-29T12:25:46;29.23;;;27.93;;
33206;SDS011;19565;46.602;11.534;2023-01-29T12:28:27;28.93;;;27.57;;
33206;SDS011;19565;46.602;11.534;2023-01-29T12:31:13;29.13;;;27.90;;
33206;SDS011;19565;46.602;11.534;2023-01-29T12:33:49;28.20;;;27.00;;
33206;SDS011;19565;46.602;11.534;2023-01-29T12:36:21;26.57;;;25.37;;
33206;SDS011;19565;46.602;11.534;2023-01-29T12:38:54;25.33;;;24.20;;
33206;SDS011;19565;46.602;11.534;2023-01-29T12:41:27;29.43;;;28.03;;
33206;SDS011;19565;46.602;11.534;2023-01-29T12:44:01;27.97;;;26.67;;
33206;SDS011;19565;46.602;11.534;2023-01-29T12:46:36;25.37;;;24.23;;
33206;SDS011;19565;46.602;11.534;2023-01-29T12:49:10;18.53;;;17.63;;
33206;SDS011;19565;46.602;11.534;2023-01-29T12:51:45;30.53;;;29.03;;
33206;SDS011;19565;46.602;11.534;2023-01-29T12:54:24;28.10;;;26.80;;
33206;SDS011;19565;46.602;11.534;2023-01-29T12:56:58;26.83;;;25.63;;
33206;SDS011;19565;46.602;11.534;2023-01-29T12:59:30;19.90;;;18.90;;
33206;SDS011;19565;46.602;11.534;2023-01-29T13:02:05;17.60;;;16.80;;
33206;SDS011;19565;46.602;11.534;2023-01-29T13:04:45;17.17;;;16.37;;
33206;SDS011;19565;46.602;11.534;2023-01-29T13:07:22;22.03;;;20.83;;
33206;SDS011;19565;46.602;11.534;2023-01-29T13:09:56;18.30;;;17.40;;
33206;SDS011;19565;46.602;11.534;2023-01-29T13:12:31;16.63;;;15.83;;
33206;SDS011;19565;46.602;11.534;2023-01-29T13:15:02;16.70;;;15.90;;
33206;SDS011;19565;46.602;11.534;2023-01-29T13:17:33;18.40;;;17.50;;
33206;SDS011;19565;46.602;11.534;2023-01-29T13:20:08;17.00;;;16.20;;
33206;SDS011;19565;46.602;11.534;2023-01-29T13:22:40;23.03;;;21.93;;
33206;SDS011;19565;46.602;11.534;2023-01-29T13:25:12;18.30;;;17.40;;
33206;SDS011;19565;46.602;11.534;2023-01-29T13:27:42;23.97;;;22.87;;
33206;SDS011;19565;46.602;11.534;2023-01-29T13:30:28;18.93;;;18.03;;
33206;SDS011;19565;46.602;11.534;2023-01-29T13:32:58;18.27;;;17.37;;
33206;SDS011;19565;46.602;11.534;2023-01-29T13:35:37;29.43;;;27.90;;
33206;SDS011;19565;46.602;11.534;2023-01-29T13:38:18;30.40;;;29.00;;
33206;SDS011;19565;46.602;11.534;2023-01-29T13:40:51;25.27;;;24.17;;
33206;SDS011;19565;46.602;11.534;2023-01-29T13:43:22;22.97;;;21.90;;
33206;SDS011;19565;46.602;11.534;2023-01-29T13:45:51;30.40;;;29.10;;
33206;SDS011;19565;46.602;11.534;2023-01-29T13:48:20;30.53;;;29.13;;
33206;SDS011;19565;46.602;11.534;2023-01-29T13:50:52;30.00;;;28.70;;
33206;SDS011;19565;46.602;11.534;2023-01-29T13:53:23;28.00;;;26.70;;
33206;SDS011;19565;46.602;11.534;2023-01-29T13:55:54;29.90;;;28.60;;
33206;SDS011;19565;46.602;11.534;2023-01-29T13:58:56;30.30;;;29.00;;
33206;SDS011;19565;46.602;11.534;2023-01-29T14:04:28;29.00;;;27.70;;
33206;SDS011;19565;46.602;11.534;2023-01-29T14:06:58;20.17;;;19.27;;
33206;SDS011;19565;46.602;11.534;2023-01-29T14:12:43;18.83;;;17.93;;
33206;SDS011;19565;46.602;11.534;2023-01-29T14:15:19;19.30;;;18.40;;
33206;SDS011;19565;46.602;11.534;2023-01-29T14:17:53;19.17;;;18.20;;
33206;SDS011;19565;46.602;11.534;2023-01-29T14:20:49;18.23;;;17.33;;
33206;SDS011;19565;46.602;11.534;2023-01-29T14:23:21;18.67;;;17.70;;
33206;SDS011;19565;46.602;11.534;2023-01-29T14:25:56;18.40;;;17.50;;
33206;SDS011;19565;46.602;11.534;2023-01-29T14:28:29;18.50;;;17.60;;
33206;SDS011;19565;46.602;11.534;2023-01-29T14:31:00;17.40;;;16.50;;
33206;SDS011;19565;46.602;11.534;2023-01-29T14:33:32;18.70;;;17.60;;
33206;SDS011;19565;46.602;11.534;2023-01-29T14:36:03;18.40;;;17.50;;
33206;SDS011;19565;46.602;11.534;2023-01-29T14:38:33;18.30;;;17.33;;
33206;SDS011;19565;46.602;11.534;2023-01-29T14:41:14;17.17;;;16.27;;
33206;SDS011;19565;46.602;11.534;2023-01-29T14:43:51;18.47;;;17.57;;
33206;SDS011;19565;46.602;11.534;2023-01-29T14:46:59;17.77;;;16.87;;
33206;SDS011;19565;46.602;11.534;2023-01-29T14:52:19;18.20;;;17.30;;
33206;SDS011;19565;46.602;11.534;2023-01-29T14:54:49;17.47;;;16.60;;
33206;SDS011;19565;46.602;11.534;2023-01-29T14:57:19;18.27;;;17.37;;
33206;SDS011;19565;46.602;11.534;2023-01-29T14:59:52;17.70;;;16.80;;
33206;SDS011;19565;46.602;11.534;2023-01-29T15:02:26;19.30;;;18.40;;
33206;SDS011;19565;46.602;11.534;2023-01-29T15:05:03;18.37;;;17.47;;